createdAt,value
2023-03-31T10:51:30.602Z,80.90
2023-03-31T10:54:34.209Z,80.40
2023-03-31T10:57:54.489Z,78.70
2023-03-31T11:01:10.962Z,79.60
2023-03-31T11:04:48.326Z,78.90
2023-03-31T11:13:33.662Z,78.00
2023-03-31T11:18:03.248Z,77.50
2023-03-31T11:24:44.724Z,74.70
2023-03-31T11:28:20.976Z,73.40
2023-03-31T11:31:41.418Z,74.70
2023-03-31T11:35:05.365Z,73.30
2023-03-31T11:38:31.735Z,73.10
2023-03-31T11:47:56.264Z,72.40
2023-03-31T11:51:04.690Z,73.70
2023-03-31T11:59:16.809Z,73.20
2023-03-31T12:02:28.764Z,74.30
2023-03-31T12:05:38.196Z,74.50
2023-03-31T12:08:51.963Z,74.70
2023-03-31T12:12:04.312Z,74.60
2023-03-31T12:15:20.920Z,74.70
2023-03-31T12:18:28.182Z,74.70
2023-03-31T12:21:35.481Z,74.80
2023-03-31T12:24:39.748Z,74.90
2023-03-31T12:27:47.290Z,74.40
2023-03-31T12:30:54.957Z,74.40
2023-03-31T12:34:03.969Z,74.50
2023-03-31T12:37:33.960Z,74.50
2023-03-31T12:40:56.577Z,74.60
2023-03-31T12:44:32.975Z,74.60
2023-03-31T12:47:54.614Z,74.80
2023-03-31T12:51:21.999Z,75.00
2023-03-31T12:55:16.281Z,75.30
2023-03-31T12:58:40.938Z,75.70
2023-03-31T13:04:19.206Z,75.80
2023-03-31T13:07:42.467Z,76.70
2023-03-31T13:10:59.765Z,76.90
2023-03-31T13:14:07.855Z,76.70
2023-03-31T13:17:25.680Z,76.60
2023-03-31T13:20:38.803Z,76.70
2023-03-31T13:23:48.186Z,76.60
2023-03-31T13:26:54.906Z,76.40
2023-03-31T13:29:59.184Z,76.00
2023-03-31T13:33:11.085Z,76.10
2023-03-31T13:36:51.233Z,75.90
2023-03-31T13:40:37.624Z,76.00
2023-03-31T13:44:06.758Z,76.00
2023-03-31T13:47:54.624Z,76.30
2023-03-31T13:51:32.882Z,76.40
2023-03-31T13:55:17.974Z,76.30
2023-03-31T13:59:09.202Z,76.40
2023-03-31T14:02:51.289Z,76.30
2023-03-31T14:06:04.477Z,76.00
2023-03-31T14:17:31.655Z,75.40
2023-03-31T14:20:51.723Z,75.60
2023-03-31T14:24:11.302Z,77.00
2023-03-31T14:27:41.334Z,76.00
2023-03-31T14:34:37.355Z,76.00
2023-03-31T14:47:33.126Z,78.10
2023-03-31T14:50:37.699Z,78.80
2023-03-31T14:53:41.302Z,78.80
2023-03-31T14:59:55.753Z,76.90
2023-03-31T15:03:03.843Z,77.70
2023-03-31T15:06:08.530Z,77.60
2023-03-31T15:09:20.957Z,77.80
2023-03-31T15:12:25.210Z,77.10
2023-03-31T15:15:28.574Z,77.40
2023-03-31T15:18:33.568Z,77.40
2023-03-31T15:21:39.731Z,77.10
2023-03-31T15:24:43.330Z,76.50
2023-03-31T15:27:52.891Z,76.70
2023-03-31T15:31:08.976Z,75.60
2023-03-31T15:34:20.968Z,75.90
2023-03-31T15:37:29.174Z,75.90
2023-03-31T15:40:40.994Z,75.90
2023-03-31T15:47:01.621Z,75.10
2023-03-31T15:50:16.394Z,75.40
2023-03-31T15:53:36.219Z,75.80
2023-03-31T15:56:46.231Z,75.90
2023-03-31T15:59:55.865Z,76.40
2023-03-31T16:03:03.910Z,76.20
2023-03-31T16:06:19.646Z,76.50
2023-03-31T16:09:28.511Z,76.90
2023-03-31T16:18:51.458Z,76.30
2023-03-31T16:25:12.811Z,76.70
2023-03-31T16:28:21.428Z,76.90
2023-03-31T16:31:37.948Z,77.20
2023-03-31T16:34:56.917Z,77.60
2023-03-31T16:38:03.166Z,77.70
2023-03-31T16:41:08.245Z,75.80
2023-03-31T16:47:27.721Z,78.80
2023-03-31T17:09:04.589Z,74.10
2023-03-31T17:39:57.225Z,74.90
2023-03-31T19:06:12.533Z,75.10
2023-03-31T19:27:46.254Z,74.10
2023-03-31T19:33:53.669Z,75.10
2023-03-31T19:43:09.910Z,74.50
2023-03-31T20:23:08.838Z,74.20
2023-03-31T20:29:19.397Z,73.80
2023-03-31T20:41:38.614Z,74.70
2023-03-31T20:44:43.366Z,74.00
2023-03-31T20:53:58.088Z,73.40
2023-03-31T21:00:12.437Z,75.60
2023-03-31T21:06:21.156Z,76.20
2023-03-31T21:12:28.922Z,74.70
2023-03-31T21:21:43.146Z,74.50
2023-03-31T21:40:14.350Z,73.90
2023-03-31T22:01:47.762Z,73.60
2023-03-31T22:32:31.188Z,73.00
2023-03-31T22:38:38.572Z,74.00
